PWSweather.com
Personal Weather Stations
Station Observations
NIGHT1
EastleighGB

EastleighGB

Lat: 50.966307, Lon: -1.380982

Elevation: 78

Station Type: Davis VP2 with daytime FARS

Latest ConditionsUpdated 1:25:00 PM GMT Saturday, Mar 25, 2017
Currently Today's Max Today's Min Today's Average
Temperature 61.9°F16.6°C 61.9°F16.6°C 39.3°F4.1°C 46.5°F8.1°C
Dew Point 39.1°F3.9°C 43.8°F6.6°C 36.9°F2.7°C 39.0°F3.9°C
Winds 3.6 mph NE5.8 kmh NE 6.6 mph ENE10.6 kmh ENE - 2.6 mph 4.2 kmh
Wind Gusts 8.0 mph12.9 kmh 24.0 mph38.6 kmh - -
Humidity 43% 91% 42% 78%
Pressure 30.28 in1025.4 mb 30.42 in1030.1 mb 30.28 in1025.4 mb -
Hour Temp Dew Point Humidity Winds Wind Gusts Pressure Precip Precip Rate Daily Precip Total
01:25 PM 61.9°F16.6°C 39.1°F3.9°C 43% 3.6 mph NE5.8 kmh NE 8.0 mph12.9 kmh 30.28 in1025.4 mb 0.00 in0.0 mm 0.00 in0.0 mm 0.00 in0.0 mm
01:20 PM 61.6°F16.4°C 39.5°F4.2°C 44% 4.4 mph NE7.1 kmh NE 20.0 mph32.2 kmh 30.29 in1025.7 mb 0.00 in0.0 mm 0.00 in0.0 mm 0.00 in0.0 mm
01:15 PM 61.2°F16.2°C 38.5°F3.6°C 43% 5.1 mph NE8.2 kmh NE 20.0 mph32.2 kmh 30.29 in1025.7 mb 0.00 in0.0 mm 0.00 in0.0 mm 0.00 in0.0 mm
01:10 PM 61.1°F16.2°C 37.8°F3.2°C 42% 5.7 mph NE9.2 kmh NE 19.0 mph30.6 kmh 30.29 in1025.7 mb 0.00 in0.0 mm 0.00 in0.0 mm 0.00 in0.0 mm
01:05 PM 60.9°F16.1°C 37.6°F3.1°C 42% 5.9 mph NE9.5 kmh NE 19.0 mph30.6 kmh 30.29 in1025.7 mb 0.00 in0.0 mm 0.00 in0.0 mm 0.00 in0.0 mm
01:00 PM 60.7°F15.9°C 37.5°F3.1°C 42% 5.8 mph NE9.3 kmh NE 15.0 mph24.1 kmh 30.29 in1025.7 mb 0.00 in0.0 mm 0.00 in0.0 mm 0.00 in0.0 mm
12:55 PM 60.5°F15.8°C 37.9°F3.3°C 43% 5.9 mph ENE9.5 kmh ENE 15.0 mph24.1 kmh 30.29 in1025.7 mb 0.00 in0.0 mm 0.00 in0.0 mm 0.00 in0.0 mm
12:50 PM 60.3°F15.7°C 37.1°F2.8°C 42% 6.4 mph NE10.3 kmh NE 16.0 mph25.7 kmh 30.30 in1026.1 mb 0.00 in0.0 mm 0.00 in0.0 mm 0.00 in0.0 mm
12:45 PM 60.1°F15.6°C 38.1°F3.4°C 44% 6.6 mph ENE10.6 kmh ENE 16.0 mph25.7 kmh 30.30 in1026.1 mb 0.00 in0.0 mm 0.00 in0.0 mm 0.00 in0.0 mm
12:40 PM 59.8°F15.4°C 37.8°F3.2°C 44% 5.9 mph E9.5 kmh E 18.0 mph29.0 kmh 30.30 in1026.1 mb 0.00 in0.0 mm 0.00 in0.0 mm 0.00 in0.0 mm
12:35 PM 59.6°F15.3°C 37.1°F2.8°C 43% 5.7 mph E9.2 kmh E 18.0 mph29.0 kmh 30.30 in1026.1 mb 0.00 in0.0 mm 0.00 in0.0 mm 0.00 in0.0 mm
12:30 PM 59.8°F15.4°C 37.2°F2.9°C 43% 6.2 mph ENE10.0 kmh ENE 18.0 mph29.0 kmh 30.30 in1026.1 mb 0.00 in0.0 mm 0.00 in0.0 mm 0.00 in0.0 mm
12:25 PM 59.6°F15.3°C 37.1°F2.8°C 43% 6.2 mph ENE10.0 kmh ENE 19.0 mph30.6 kmh 30.30 in1026.1 mb 0.00 in0.0 mm 0.00 in0.0 mm 0.00 in0.0 mm
12:20 PM 59.5°F15.3°C 37.6°F3.1°C 44% 5.6 mph ENE9.0 kmh ENE 19.0 mph30.6 kmh 30.31 in1026.4 mb 0.00 in0.0 mm 0.00 in0.0 mm 0.00 in0.0 mm
12:15 PM 59.6°F15.3°C 37.6°F3.1°C 44% 5.1 mph NE8.2 kmh NE 16.0 mph25.7 kmh 30.30 in1026.1 mb 0.00 in0.0 mm 0.00 in0.0 mm 0.00 in0.0 mm
12:10 PM 59.6°F15.3°C 38.8°F3.8°C 46% 5.2 mph NE8.4 kmh NE 15.0 mph24.1 kmh 30.31 in1026.4 mb 0.00 in0.0 mm 0.00 in0.0 mm 0.00 in0.0 mm
12:05 PM 59.5°F15.3°C 38.7°F3.7°C 46% 5.7 mph NE9.2 kmh NE 19.0 mph30.6 kmh 30.30 in1026.1 mb 0.00 in0.0 mm 0.00 in0.0 mm 0.00 in0.0 mm
12:00 PM 59.3°F15.2°C 38.5°F3.6°C 46% 5.9 mph NE9.5 kmh NE 19.0 mph30.6 kmh 30.31 in1026.4 mb 0.00 in0.0 mm 0.00 in0.0 mm 0.00 in0.0 mm
11:55 AM 59.1°F15.1°C 38.3°F3.5°C 46% 5.6 mph ENE9.0 kmh ENE 24.0 mph38.6 kmh 30.31 in1026.4 mb 0.00 in0.0 mm 0.00 in0.0 mm 0.00 in0.0 mm
11:50 AM 59.0°F15.0°C 38.2°F3.4°C 46% 5.6 mph ENE9.0 kmh ENE 24.0 mph38.6 kmh 30.31 in1026.4 mb 0.00 in0.0 mm 0.00 in0.0 mm 0.00 in0.0 mm
11:45 AM 58.8°F14.9°C 38.1°F3.4°C 46% 5.9 mph ENE9.5 kmh ENE 23.0 mph37.0 kmh 30.31 in1026.4 mb 0.00 in0.0 mm 0.00 in0.0 mm 0.00 in0.0 mm
11:40 AM 58.4°F14.7°C 38.2°F3.4°C 47% 5.5 mph ENE8.9 kmh ENE 20.0 mph32.2 kmh 30.32 in1026.8 mb 0.00 in0.0 mm 0.00 in0.0 mm 0.00 in0.0 mm
11:35 AM 58.7°F14.8°C 38.0°F3.3°C 46% 5.0 mph ENE8.0 kmh ENE 15.0 mph24.1 kmh 30.32 in1026.8 mb 0.00 in0.0 mm 0.00 in0.0 mm 0.00 in0.0 mm
11:30 AM 58.6°F14.8°C 37.9°F3.3°C 46% 5.1 mph ENE8.2 kmh ENE 15.0 mph24.1 kmh 30.32 in1026.8 mb 0.00 in0.0 mm 0.00 in0.0 mm 0.00 in0.0 mm
11:25 AM 58.7°F14.8°C 39.0°F3.9°C 48% 5.6 mph ENE9.0 kmh ENE 13.0 mph20.9 kmh 30.32 in1026.8 mb 0.00 in0.0 mm 0.00 in0.0 mm 0.00 in0.0 mm
11:20 AM 58.4°F14.7°C 38.8°F3.8°C 48% 5.4 mph ENE8.7 kmh ENE 13.0 mph20.9 kmh 30.32 in1026.8 mb 0.00 in0.0 mm 0.00 in0.0 mm 0.00 in0.0 mm
11:15 AM 58.0°F14.4°C 38.9°F3.8°C 49% 4.1 mph E6.6 kmh E 13.0 mph20.9 kmh 30.32 in1026.8 mb 0.00 in0.0 mm 0.00 in0.0 mm 0.00 in0.0 mm
11:10 AM 58.0°F14.4°C 40.5°F4.7°C 52% 3.2 mph ENE5.1 kmh ENE 12.0 mph19.3 kmh 30.33 in1027.1 mb 0.00 in0.0 mm 0.00 in0.0 mm 0.00 in0.0 mm
11:05 AM 57.9°F14.4°C 41.3°F5.2°C 54% 3.0 mph ENE4.8 kmh ENE 12.0 mph19.3 kmh 30.33 in1027.1 mb 0.00 in0.0 mm 0.00 in0.0 mm 0.00 in0.0 mm
11:00 AM 57.4°F14.1°C 41.8°F5.4°C 56% 2.9 mph NE4.7 kmh NE 9.0 mph14.5 kmh 30.33 in1027.1 mb 0.00 in0.0 mm 0.00 in0.0 mm 0.00 in0.0 mm
10:55 AM 56.9°F13.8°C 41.4°F5.2°C 56% 3.2 mph NE5.1 kmh NE 9.0 mph14.5 kmh 30.33 in1027.1 mb 0.00 in0.0 mm 0.00 in0.0 mm 0.00 in0.0 mm
10:50 AM 56.6°F13.7°C 42.0°F5.6°C 58% 4.0 mph NE6.4 kmh NE 12.0 mph19.3 kmh 30.33 in1027.1 mb 0.00 in0.0 mm 0.00 in0.0 mm 0.00 in0.0 mm
10:45 AM 55.9°F13.3°C 41.8°F5.4°C 59% 4.3 mph NNE6.9 kmh NNE 13.0 mph20.9 kmh 30.33 in1027.1 mb 0.00 in0.0 mm 0.00 in0.0 mm 0.00 in0.0 mm
10:40 AM 55.5°F13.1°C 41.4°F5.2°C 59% 4.1 mph NNE6.6 kmh NNE 13.0 mph20.9 kmh 30.34 in1027.4 mb 0.00 in0.0 mm 0.00 in0.0 mm 0.00 in0.0 mm
10:35 AM 55.5°F13.1°C 42.3°F5.7°C 61% 4.0 mph NNE6.4 kmh NNE 13.0 mph20.9 kmh 30.34 in1027.4 mb 0.00 in0.0 mm 0.00 in0.0 mm 0.00 in0.0 mm
10:30 AM 55.1°F12.8°C 42.3°F5.7°C 62% 4.0 mph NNE6.4 kmh NNE 10.0 mph16.1 kmh 30.34 in1027.4 mb 0.00 in0.0 mm 0.00 in0.0 mm 0.00 in0.0 mm
10:25 AM 54.7°F12.6°C 41.5°F5.3°C 61% 3.6 mph NNE5.8 kmh NNE 13.0 mph20.9 kmh 30.34 in1027.4 mb 0.00 in0.0 mm 0.00 in0.0 mm 0.00 in0.0 mm
10:20 AM 54.8°F12.7°C 41.6°F5.3°C 61% 3.4 mph NE5.5 kmh NE 13.0 mph20.9 kmh 30.34 in1027.4 mb 0.00 in0.0 mm 0.00 in0.0 mm 0.00 in0.0 mm
10:15 AM 54.8°F12.7°C 42.9°F6.1°C 64% 3.8 mph NE6.1 kmh NE 12.0 mph19.3 kmh 30.35 in1027.8 mb 0.00 in0.0 mm 0.00 in0.0 mm 0.00 in0.0 mm
10:10 AM 54.4°F12.4°C 42.1°F5.6°C 63% 3.7 mph NE6.0 kmh NE 12.0 mph19.3 kmh 30.35 in1027.8 mb 0.00 in0.0 mm 0.00 in0.0 mm 0.00 in0.0 mm
10:05 AM 53.9°F12.2°C 42.8°F6.0°C 66% 2.9 mph NNE4.7 kmh NNE 12.0 mph19.3 kmh 30.35 in1027.8 mb 0.00 in0.0 mm 0.00 in0.0 mm 0.00 in0.0 mm
10:00 AM 53.3°F11.8°C 43.0°F6.1°C 68% 2.7 mph NNE4.3 kmh NNE 12.0 mph19.3 kmh 30.35 in1027.8 mb 0.00 in0.0 mm 0.00 in0.0 mm 0.00 in0.0 mm
09:55 AM 53.3°F11.8°C 43.8°F6.6°C 70% 3.1 mph NNE5.0 kmh NNE 9.0 mph14.5 kmh 30.35 in1027.8 mb 0.00 in0.0 mm 0.00 in0.0 mm 0.00 in0.0 mm
09:50 AM 52.4°F11.3°C 43.3°F6.3°C 71% 3.6 mph NNE5.8 kmh NNE 10.0 mph16.1 kmh 30.36 in1028.1 mb 0.00 in0.0 mm 0.00 in0.0 mm 0.00 in0.0 mm
09:45 AM 51.8°F11.0°C 43.1°F6.2°C 72% 3.8 mph NNE6.1 kmh NNE 10.0 mph16.1 kmh 30.36 in1028.1 mb 0.00 in0.0 mm 0.00 in0.0 mm 0.00 in0.0 mm
09:40 AM 51.2°F10.7°C 42.8°F6.0°C 73% 3.3 mph NNE5.3 kmh NNE 9.0 mph14.5 kmh 30.36 in1028.1 mb 0.00 in0.0 mm 0.00 in0.0 mm 0.00 in0.0 mm
09:35 AM 51.1°F10.6°C 43.1°F6.2°C 74% 3.0 mph NNE4.8 kmh NNE 8.0 mph12.9 kmh 30.36 in1028.1 mb 0.00 in0.0 mm 0.00 in0.0 mm 0.00 in0.0 mm
09:30 AM 50.8°F10.4°C 43.2°F6.2°C 75% 3.0 mph NNE4.8 kmh NNE 14.0 mph22.5 kmh 30.36 in1028.1 mb 0.00 in0.0 mm 0.00 in0.0 mm 0.00 in0.0 mm
09:25 AM 50.3°F10.2°C 43.0°F6.1°C 76% 3.3 mph NNE5.3 kmh NNE 14.0 mph22.5 kmh 30.36 in1028.1 mb 0.00 in0.0 mm 0.00 in0.0 mm 0.00 in0.0 mm
09:20 AM 49.8°F9.9°C 42.9°F6.1°C 77% 3.8 mph NNE6.1 kmh NNE 13.0 mph20.9 kmh 30.36 in1028.1 mb 0.00 in0.0 mm 0.00 in0.0 mm 0.00 in0.0 mm
09:15 AM 49.6°F9.8°C 43.4°F6.3°C 79% 3.9 mph NNE6.3 kmh NNE 13.0 mph20.9 kmh 30.36 in1028.1 mb 0.00 in0.0 mm 0.00 in0.0 mm 0.00 in0.0 mm
09:10 AM 49.0°F9.4°C 42.4°F5.8°C 78% 3.4 mph NNE5.5 kmh NNE 10.0 mph16.1 kmh 30.36 in1028.1 mb 0.00 in0.0 mm 0.00 in0.0 mm 0.00 in0.0 mm
09:05 AM 48.6°F9.2°C 42.4°F5.8°C 79% 3.0 mph NE4.8 kmh NE 10.0 mph16.1 kmh 30.37 in1028.4 mb 0.00 in0.0 mm 0.00 in0.0 mm 0.00 in0.0 mm
09:00 AM 48.6°F9.2°C 42.7°F5.9°C 80% 3.5 mph NE5.6 kmh NE 10.0 mph16.1 kmh 30.37 in1028.4 mb 0.00 in0.0 mm 0.00 in0.0 mm 0.00 in0.0 mm
08:55 AM 48.1°F8.9°C 42.5°F5.8°C 81% 3.5 mph NE5.6 kmh NE 10.0 mph16.1 kmh 30.37 in1028.4 mb 0.00 in0.0 mm 0.00 in0.0 mm 0.00 in0.0 mm
08:50 AM 47.7°F8.7°C 42.2°F5.7°C 81% 2.7 mph NE4.3 kmh NE 11.0 mph17.7 kmh 30.37 in1028.4 mb 0.00 in0.0 mm 0.00 in0.0 mm 0.00 in0.0 mm
08:45 AM 47.6°F8.7°C 42.4°F5.8°C 82% 2.2 mph NE3.5 kmh NE 13.0 mph20.9 kmh 30.37 in1028.4 mb 0.00 in0.0 mm 0.00 in0.0 mm 0.00 in0.0 mm
08:40 AM 47.3°F8.5°C 42.1°F5.6°C 82% 2.1 mph NE3.4 kmh NE 13.0 mph20.9 kmh 30.38 in1028.8 mb 0.00 in0.0 mm 0.00 in0.0 mm 0.00 in0.0 mm
08:35 AM 47.0°F8.3°C 42.1°F5.6°C 83% 2.3 mph NE3.7 kmh NE 6.0 mph9.7 kmh 30.38 in1028.8 mb 0.00 in0.0 mm 0.00 in0.0 mm 0.00 in0.0 mm
08:30 AM 46.7°F8.2°C 41.8°F5.4°C 83% 2.7 mph NNE4.3 kmh NNE 9.0 mph14.5 kmh 30.38 in1028.8 mb 0.00 in0.0 mm 0.00 in0.0 mm 0.00 in0.0 mm
08:25 AM 46.5°F8.1°C 41.9°F5.5°C 84% 3.0 mph NNE4.8 kmh NNE 9.0 mph14.5 kmh 30.38 in1028.8 mb 0.00 in0.0 mm 0.00 in0.0 mm 0.00 in0.0 mm
08:20 AM 46.1°F7.8°C 41.5°F5.3°C 84% 3.2 mph NNE5.1 kmh NNE 9.0 mph14.5 kmh 30.39 in1029.1 mb 0.00 in0.0 mm 0.00 in0.0 mm 0.00 in0.0 mm
08:15 AM 45.6°F7.6°C 41.4°F5.2°C 85% 3.7 mph NNE6.0 kmh NNE 9.0 mph14.5 kmh 30.39 in1029.1 mb 0.00 in0.0 mm 0.00 in0.0 mm 0.00 in0.0 mm
08:10 AM 45.2°F7.3°C 41.0°F5.0°C 85% 3.7 mph N6.0 kmh N 11.0 mph17.7 kmh 30.39 in1029.1 mb 0.00 in0.0 mm 0.00 in0.0 mm 0.00 in0.0 mm
08:05 AM 44.8°F7.1°C 40.9°F4.9°C 86% 3.2 mph NNE5.1 kmh NNE 11.0 mph17.7 kmh 30.39 in1029.1 mb 0.00 in0.0 mm 0.00 in0.0 mm 0.00 in0.0 mm
08:00 AM 44.5°F6.9°C 40.6°F4.8°C 86% 3.0 mph NNE4.8 kmh NNE 8.0 mph12.9 kmh 30.39 in1029.1 mb 0.00 in0.0 mm 0.00 in0.0 mm 0.00 in0.0 mm
07:55 AM 44.1°F6.7°C 40.5°F4.7°C 87% 3.0 mph NNE4.8 kmh NNE 10.0 mph16.1 kmh 30.39 in1029.1 mb 0.00 in0.0 mm 0.00 in0.0 mm 0.00 in0.0 mm
07:50 AM 43.6°F6.4°C 40.0°F4.4°C 87% 3.0 mph N4.8 kmh N 10.0 mph16.1 kmh 30.39 in1029.1 mb 0.00 in0.0 mm 0.00 in0.0 mm 0.00 in0.0 mm
07:45 AM 43.1°F6.2°C 39.8°F4.3°C 88% 3.0 mph N4.8 kmh N 9.0 mph14.5 kmh 30.39 in1029.1 mb 0.00 in0.0 mm 0.00 in0.0 mm 0.00 in0.0 mm
07:40 AM 42.7°F5.9°C 39.4°F4.1°C 88% 3.0 mph N4.8 kmh N 9.0 mph14.5 kmh 30.39 in1029.1 mb 0.00 in0.0 mm 0.00 in0.0 mm 0.00 in0.0 mm
07:35 AM 42.3°F5.7°C 39.3°F4.1°C 89% 2.7 mph N4.3 kmh N 11.0 mph17.7 kmh 30.39 in1029.1 mb 0.00 in0.0 mm 0.00 in0.0 mm 0.00 in0.0 mm
07:30 AM 42.2°F5.7°C 39.2°F4.0°C 89% 2.5 mph N4.0 kmh N 11.0 mph17.7 kmh 30.39 in1029.1 mb 0.00 in0.0 mm 0.00 in0.0 mm 0.00 in0.0 mm
07:25 AM 41.9°F5.5°C 38.9°F3.8°C 89% 2.8 mph N4.5 kmh N 6.0 mph9.7 kmh 30.39 in1029.1 mb 0.00 in0.0 mm 0.00 in0.0 mm 0.00 in0.0 mm
07:20 AM 41.7°F5.4°C 39.0°F3.9°C 90% 3.0 mph N4.8 kmh N 6.0 mph9.7 kmh 30.39 in1029.1 mb 0.00 in0.0 mm 0.00 in0.0 mm 0.00 in0.0 mm
07:15 AM 41.4°F5.2°C 38.7°F3.7°C 90% 2.6 mph N4.2 kmh N 6.0 mph9.7 kmh 30.39 in1029.1 mb 0.00 in0.0 mm 0.00 in0.0 mm 0.00 in0.0 mm
07:10 AM 41.2°F5.1°C 38.5°F3.6°C 90% 2.1 mph N3.4 kmh N 8.0 mph12.9 kmh 30.39 in1029.1 mb 0.00 in0.0 mm 0.00 in0.0 mm 0.00 in0.0 mm
07:05 AM 40.7°F4.8°C 38.3°F3.5°C 91% 2.0 mph N3.2 kmh N 8.0 mph12.9 kmh 30.39 in1029.1 mb 0.00 in0.0 mm 0.00 in0.0 mm 0.00 in0.0 mm
07:00 AM 40.5°F4.7°C 38.1°F3.4°C 91% 2.0 mph N3.2 kmh N 5.0 mph8.0 kmh 30.39 in1029.1 mb 0.00 in0.0 mm 0.00 in0.0 mm 0.00 in0.0 mm
06:55 AM 40.2°F4.6°C 37.8°F3.2°C 91% 2.5 mph N4.0 kmh N 5.0 mph8.0 kmh 30.39 in1029.1 mb 0.00 in0.0 mm 0.00 in0.0 mm 0.00 in0.0 mm
06:50 AM 40.0°F4.4°C 37.6°F3.1°C 91% 2.6 mph N4.2 kmh N 6.0 mph9.7 kmh 30.39 in1029.1 mb 0.00 in0.0 mm 0.00 in0.0 mm 0.00 in0.0 mm
06:45 AM 39.8°F4.3°C 37.4°F3.0°C 91% 2.1 mph N3.4 kmh N 9.0 mph14.5 kmh 30.39 in1029.1 mb 0.00 in0.0 mm 0.00 in0.0 mm 0.00 in0.0 mm
06:40 AM 39.6°F4.2°C 37.2°F2.9°C 91% 1.8 mph N2.9 kmh N 9.0 mph14.5 kmh 30.39 in1029.1 mb 0.00 in0.0 mm 0.00 in0.0 mm 0.00 in0.0 mm
06:35 AM 39.5°F4.2°C 37.1°F2.8°C 91% 1.3 mph N2.1 kmh N 5.0 mph8.0 kmh 30.39 in1029.1 mb 0.00 in0.0 mm 0.00 in0.0 mm 0.00 in0.0 mm
06:30 AM 39.4°F4.1°C 37.0°F2.8°C 91% 1.4 mph N2.3 kmh N 5.0 mph8.0 kmh 30.39 in1029.1 mb 0.00 in0.0 mm 0.00 in0.0 mm 0.00 in0.0 mm
06:25 AM 39.4°F4.1°C 37.0°F2.8°C 91% 1.7 mph N2.7 kmh N 4.0 mph6.4 kmh 30.40 in1029.5 mb 0.00 in0.0 mm 0.00 in0.0 mm 0.00 in0.0 mm
06:20 AM 39.4°F4.1°C 37.0°F2.8°C 91% 1.3 mph N2.1 kmh N 6.0 mph9.7 kmh 30.40 in1029.5 mb 0.00 in0.0 mm 0.00 in0.0 mm 0.00 in0.0 mm
06:15 AM 39.3°F4.1°C 36.9°F2.7°C 91% 1.0 mph N1.6 kmh N 6.0 mph9.7 kmh 30.40 in1029.5 mb 0.00 in0.0 mm 0.00 in0.0 mm 0.00 in0.0 mm
06:10 AM 39.4°F4.1°C 37.0°F2.8°C 91% 1.0 mph N1.6 kmh N 4.0 mph6.4 kmh 30.40 in1029.5 mb 0.00 in0.0 mm 0.00 in0.0 mm 0.00 in0.0 mm
06:05 AM 39.4°F4.1°C 37.0°F2.8°C 91% 0.5 mph N0.8 kmh N 8.0 mph12.9 kmh 30.39 in1029.1 mb 0.00 in0.0 mm 0.00 in0.0 mm 0.00 in0.0 mm
06:00 AM 39.5°F4.2°C 37.1°F2.8°C 91% 0.5 mph N0.8 kmh N 8.0 mph12.9 kmh 30.39 in1029.1 mb 0.00 in0.0 mm 0.00 in0.0 mm 0.00 in0.0 mm
05:55 AM 39.5°F4.2°C 37.1°F2.8°C 91% 1.1 mph NW1.8 kmh NW 4.0 mph6.4 kmh 30.39 in1029.1 mb 0.00 in0.0 mm 0.00 in0.0 mm 0.00 in0.0 mm
05:50 AM 39.6°F4.2°C 37.2°F2.9°C 91% 1.6 mph NW2.6 kmh NW 4.0 mph6.4 kmh 30.39 in1029.1 mb 0.00 in0.0 mm 0.00 in0.0 mm 0.00 in0.0 mm
05:45 AM 39.7°F4.3°C 37.3°F2.9°C 91% 1.7 mph NNW2.7 kmh NNW 7.0 mph11.3 kmh 30.39 in1029.1 mb 0.00 in0.0 mm 0.00 in0.0 mm 0.00 in0.0 mm
05:40 AM 39.8°F4.3°C 37.4°F3.0°C 91% 1.2 mph NNW1.9 kmh NNW 7.0 mph11.3 kmh 30.39 in1029.1 mb 0.00 in0.0 mm 0.00 in0.0 mm 0.00 in0.0 mm
05:35 AM 39.5°F4.2°C 37.1°F2.8°C 91% 1.0 mph NW1.6 kmh NW 3.0 mph4.8 kmh 30.39 in1029.1 mb 0.00 in0.0 mm 0.00 in0.0 mm 0.00 in0.0 mm
05:30 AM 39.4°F4.1°C 37.0°F2.8°C 91% 1.0 mph N1.6 kmh N 4.0 mph6.4 kmh 30.39 in1029.1 mb 0.00 in0.0 mm 0.00 in0.0 mm 0.00 in0.0 mm
05:25 AM 39.5°F4.2°C 37.1°F2.8°C 91% 1.0 mph N1.6 kmh N 4.0 mph6.4 kmh 30.39 in1029.1 mb 0.00 in0.0 mm 0.00 in0.0 mm 0.00 in0.0 mm
05:20 AM 39.6°F4.2°C 37.2°F2.9°C 91% 1.4 mph N2.3 kmh N 7.0 mph11.3 kmh 30.39 in1029.1 mb 0.00 in0.0 mm 0.00 in0.0 mm 0.00 in0.0 mm
05:15 AM 39.7°F4.3°C 37.3°F2.9°C 91% 1.7 mph N2.7 kmh N 9.0 mph14.5 kmh 30.39 in1029.1 mb 0.00 in0.0 mm 0.00 in0.0 mm 0.00 in0.0 mm
05:10 AM 39.7°F4.3°C 37.3°F2.9°C 91% 1.3 mph N2.1 kmh N 9.0 mph14.5 kmh 30.39 in1029.1 mb 0.00 in0.0 mm 0.00 in0.0 mm 0.00 in0.0 mm
05:05 AM 39.7°F4.3°C 37.3°F2.9°C 91% 1.0 mph N1.6 kmh N 6.0 mph9.7 kmh 30.39 in1029.1 mb 0.00 in0.0 mm 0.00 in0.0 mm 0.00 in0.0 mm
05:00 AM 39.8°F4.3°C 37.4°F3.0°C 91% 0.8 mph NNW1.3 kmh NNW 3.0 mph4.8 kmh 30.39 in1029.1 mb 0.00 in0.0 mm 0.00 in0.0 mm 0.00 in0.0 mm
04:55 AM 39.8°F4.3°C 37.4°F3.0°C 91% 0.8 mph N1.3 kmh N 3.0 mph4.8 kmh 30.39 in1029.1 mb 0.00 in0.0 mm 0.00 in0.0 mm 0.00 in0.0 mm
04:50 AM 39.9°F4.4°C 37.5°F3.1°C 91% 1.4 mph N2.3 kmh N 4.0 mph6.4 kmh 30.39 in1029.1 mb 0.00 in0.0 mm 0.00 in0.0 mm 0.00 in0.0 mm
04:45 AM 40.0°F4.4°C 37.6°F3.1°C 91% 2.2 mph N3.5 kmh N 8.0 mph12.9 kmh 30.39 in1029.1 mb 0.00 in0.0 mm 0.00 in0.0 mm 0.00 in0.0 mm
04:40 AM 40.1°F4.5°C 37.7°F3.2°C 91% 2.2 mph N3.5 kmh N 8.0 mph12.9 kmh 30.39 in1029.1 mb 0.00 in0.0 mm 0.00 in0.0 mm 0.00 in0.0 mm
04:35 AM 40.1°F4.5°C 37.7°F3.2°C 91% 1.4 mph N2.3 kmh N 8.0 mph12.9 kmh 30.39 in1029.1 mb 0.00 in0.0 mm 0.00 in0.0 mm 0.00 in0.0 mm
04:30 AM 39.9°F4.4°C 37.5°F3.1°C 91% 1.0 mph N1.6 kmh N 5.0 mph8.0 kmh 30.39 in1029.1 mb 0.00 in0.0 mm 0.00 in0.0 mm 0.00 in0.0 mm
04:25 AM 40.0°F4.4°C 37.6°F3.1°C 91% 1.4 mph N2.3 kmh N 3.0 mph4.8 kmh 30.39 in1029.1 mb 0.00 in0.0 mm 0.00 in0.0 mm 0.00 in0.0 mm
04:20 AM 40.0°F4.4°C 37.6°F3.1°C 91% 1.9 mph N3.1 kmh N 4.0 mph6.4 kmh 30.38 in1028.8 mb 0.00 in0.0 mm 0.00 in0.0 mm 0.00 in0.0 mm
04:15 AM 40.1°F4.5°C 37.7°F3.2°C 91% 1.5 mph N2.4 kmh N 7.0 mph11.3 kmh 30.38 in1028.8 mb 0.00 in0.0 mm 0.00 in0.0 mm 0.00 in0.0 mm
04:10 AM 40.1°F4.5°C 37.7°F3.2°C 91% 1.0 mph N1.6 kmh N 7.0 mph11.3 kmh 30.38 in1028.8 mb 0.00 in0.0 mm 0.00 in0.0 mm 0.00 in0.0 mm
04:05 AM 40.2°F4.6°C 37.5°F3.1°C 90% 1.3 mph NNE2.1 kmh NNE 4.0 mph6.4 kmh 30.38 in1028.8 mb 0.00 in0.0 mm 0.00 in0.0 mm 0.00 in0.0 mm
04:00 AM 40.3°F4.6°C 37.6°F3.1°C 90% 1.8 mph NNE2.9 kmh NNE 4.0 mph6.4 kmh 30.38 in1028.8 mb 0.00 in0.0 mm 0.00 in0.0 mm 0.00 in0.0 mm
03:55 AM 40.4°F4.7°C 37.7°F3.2°C 90% 2.0 mph NNE3.2 kmh NNE 6.0 mph9.7 kmh 30.38 in1028.8 mb 0.00 in0.0 mm 0.00 in0.0 mm 0.00 in0.0 mm
03:50 AM 40.4°F4.7°C 37.7°F3.2°C 90% 2.0 mph NNE3.2 kmh NNE 6.0 mph9.7 kmh 30.39 in1029.1 mb 0.00 in0.0 mm 0.00 in0.0 mm 0.00 in0.0 mm
03:45 AM 40.4°F4.7°C 37.7°F3.2°C 90% 1.8 mph NNE2.9 kmh NNE 5.0 mph8.0 kmh 30.39 in1029.1 mb 0.00 in0.0 mm 0.00 in0.0 mm 0.00 in0.0 mm
03:40 AM 40.4°F4.7°C 37.7°F3.2°C 90% 1.6 mph NNE2.6 kmh NNE 6.0 mph9.7 kmh 30.39 in1029.1 mb 0.00 in0.0 mm 0.00 in0.0 mm 0.00 in0.0 mm
03:35 AM 40.4°F4.7°C 37.7°F3.2°C 90% 1.8 mph N2.9 kmh N 6.0 mph9.7 kmh 30.39 in1029.1 mb 0.00 in0.0 mm 0.00 in0.0 mm 0.00 in0.0 mm
03:30 AM 40.2°F4.6°C 37.5°F3.1°C 90% 2.0 mph N3.2 kmh N 4.0 mph6.4 kmh 30.38 in1028.8 mb 0.00 in0.0 mm 0.00 in0.0 mm 0.00 in0.0 mm
03:25 AM 40.2°F4.6°C 37.5°F3.1°C 90% 2.0 mph NNE3.2 kmh NNE 4.0 mph6.4 kmh 30.39 in1029.1 mb 0.00 in0.0 mm 0.00 in0.0 mm 0.00 in0.0 mm
03:20 AM 40.2°F4.6°C 37.5°F3.1°C 90% 1.7 mph NNE2.7 kmh NNE 4.0 mph6.4 kmh 30.39 in1029.1 mb 0.00 in0.0 mm 0.00 in0.0 mm 0.00 in0.0 mm
03:15 AM 40.3°F4.6°C 37.6°F3.1°C 90% 1.2 mph NNE1.9 kmh NNE 4.0 mph6.4 kmh 30.39 in1029.1 mb 0.00 in0.0 mm 0.00 in0.0 mm 0.00 in0.0 mm
03:10 AM 40.3°F4.6°C 37.6°F3.1°C 90% 1.0 mph N1.6 kmh N 5.0 mph8.0 kmh 30.39 in1029.1 mb 0.00 in0.0 mm 0.00 in0.0 mm 0.00 in0.0 mm
03:05 AM 40.4°F4.7°C 37.7°F3.2°C 90% 1.4 mph N2.3 kmh N 5.0 mph8.0 kmh 30.39 in1029.1 mb 0.00 in0.0 mm 0.00 in0.0 mm 0.00 in0.0 mm
03:00 AM 40.4°F4.7°C 37.7°F3.2°C 90% 1.4 mph N2.3 kmh N 5.0 mph8.0 kmh 30.39 in1029.1 mb 0.00 in0.0 mm 0.00 in0.0 mm 0.00 in0.0 mm
02:55 AM 40.4°F4.7°C 37.7°F3.2°C 90% 0.5 mph N0.8 kmh N 4.0 mph6.4 kmh 30.39 in1029.1 mb 0.00 in0.0 mm 0.00 in0.0 mm 0.00 in0.0 mm
02:50 AM 40.5°F4.7°C 37.8°F3.2°C 90% 0.3 mph NNE0.5 kmh NNE 4.0 mph6.4 kmh 30.39 in1029.1 mb 0.00 in0.0 mm 0.00 in0.0 mm 0.00 in0.0 mm
02:45 AM 40.4°F4.7°C 37.7°F3.2°C 90% 0.8 mph N1.3 kmh N 3.0 mph4.8 kmh 30.39 in1029.1 mb 0.00 in0.0 mm 0.00 in0.0 mm 0.00 in0.0 mm
02:40 AM 40.4°F4.7°C 37.4°F3.0°C 89% 1.0 mph N1.6 kmh N 3.0 mph4.8 kmh 30.39 in1029.1 mb 0.00 in0.0 mm 0.00 in0.0 mm 0.00 in0.0 mm
02:35 AM 40.4°F4.7°C 37.4°F3.0°C 89% 1.2 mph N1.9 kmh N 3.0 mph4.8 kmh 30.39 in1029.1 mb 0.00 in0.0 mm 0.00 in0.0 mm 0.00 in0.0 mm
02:30 AM 40.4°F4.7°C 37.4°F3.0°C 89% 1.4 mph NNE2.3 kmh NNE 3.0 mph4.8 kmh 30.39 in1029.1 mb 0.00 in0.0 mm 0.00 in0.0 mm 0.00 in0.0 mm
02:25 AM 40.5°F4.7°C 37.5°F3.1°C 89% 0.9 mph NNE1.4 kmh NNE 4.0 mph6.4 kmh 30.39 in1029.1 mb 0.00 in0.0 mm 0.00 in0.0 mm 0.00 in0.0 mm
02:20 AM 40.5°F4.7°C 37.5°F3.1°C 89% 0.2 mph NNE0.3 kmh NNE 4.0 mph6.4 kmh 30.40 in1029.5 mb 0.00 in0.0 mm 0.00 in0.0 mm 0.00 in0.0 mm
02:15 AM 40.6°F4.8°C 37.6°F3.1°C 89% 0.2 mph 0.3 kmh -- 30.40 in1029.5 mb 0.00 in0.0 mm 0.00 in0.0 mm 0.00 in0.0 mm
02:10 AM 40.9°F4.9°C 37.9°F3.3°C 89% 0.7 mph NNE1.1 kmh NNE 2.0 mph3.2 kmh 30.40 in1029.5 mb 0.00 in0.0 mm 0.00 in0.0 mm 0.00 in0.0 mm
02:05 AM 41.0°F5.0°C 37.7°F3.2°C 88% 1.4 mph N2.3 kmh N 4.0 mph6.4 kmh 30.40 in1029.5 mb 0.00 in0.0 mm 0.00 in0.0 mm 0.00 in0.0 mm
02:00 AM 41.0°F5.0°C 37.7°F3.2°C 88% 2.4 mph NNE3.9 kmh NNE 4.0 mph6.4 kmh 30.40 in1029.5 mb 0.00 in0.0 mm 0.00 in0.0 mm 0.00 in0.0 mm
01:55 AM 41.1°F5.1°C 37.8°F3.2°C 88% 3.0 mph NNE4.8 kmh NNE 5.0 mph8.0 kmh 30.40 in1029.5 mb 0.00 in0.0 mm 0.00 in0.0 mm 0.00 in0.0 mm
01:50 AM 41.2°F5.1°C 37.9°F3.3°C 88% 3.0 mph NNE4.8 kmh NNE 7.0 mph11.3 kmh 30.40 in1029.5 mb 0.00 in0.0 mm 0.00 in0.0 mm 0.00 in0.0 mm
01:45 AM 41.3°F5.2°C 38.0°F3.3°C 88% 2.6 mph NNE4.2 kmh NNE 7.0 mph11.3 kmh 30.40 in1029.5 mb 0.00 in0.0 mm 0.00 in0.0 mm 0.00 in0.0 mm
01:40 AM 41.4°F5.2°C 38.1°F3.4°C 88% 2.1 mph NNE3.4 kmh NNE 5.0 mph8.0 kmh 30.40 in1029.5 mb 0.00 in0.0 mm 0.00 in0.0 mm 0.00 in0.0 mm
01:35 AM 41.5°F5.3°C 37.9°F3.3°C 87% 1.9 mph NNE3.1 kmh NNE 5.0 mph8.0 kmh 30.41 in1029.8 mb 0.00 in0.0 mm 0.00 in0.0 mm 0.00 in0.0 mm
01:30 AM 41.6°F5.3°C 38.0°F3.3°C 87% 1.4 mph NNE2.3 kmh NNE 4.0 mph6.4 kmh 30.41 in1029.8 mb 0.00 in0.0 mm 0.00 in0.0 mm 0.00 in0.0 mm
01:25 AM 41.6°F5.3°C 38.0°F3.3°C 87% 1.1 mph NNE1.8 kmh NNE 4.0 mph6.4 kmh 30.41 in1029.8 mb 0.00 in0.0 mm 0.00 in0.0 mm 0.00 in0.0 mm
01:20 AM 41.8°F5.4°C 38.2°F3.4°C 87% 1.1 mph NNE1.8 kmh NNE 4.0 mph6.4 kmh 30.41 in1029.8 mb 0.00 in0.0 mm 0.00 in0.0 mm 0.00 in0.0 mm
01:15 AM 41.9°F5.5°C 38.3°F3.5°C 87% 1.0 mph N1.6 kmh N 4.0 mph6.4 kmh 30.41 in1029.8 mb 0.00 in0.0 mm 0.00 in0.0 mm 0.00 in0.0 mm
01:10 AM 41.9°F5.5°C 38.0°F3.3°C 86% 1.5 mph NNE2.4 kmh NNE 4.0 mph6.4 kmh 30.42 in1030.1 mb 0.00 in0.0 mm 0.00 in0.0 mm 0.00 in0.0 mm
01:05 AM 42.1°F5.6°C 38.5°F3.6°C 87% 2.0 mph NNE3.2 kmh NNE 5.0 mph8.0 kmh 30.42 in1030.1 mb 0.00 in0.0 mm 0.00 in0.0 mm 0.00 in0.0 mm
01:00 AM 42.2°F5.7°C 38.3°F3.5°C 86% 2.0 mph N3.2 kmh N 5.0 mph8.0 kmh 30.41 in1029.8 mb 0.00 in0.0 mm 0.00 in0.0 mm 0.00 in0.0 mm
12:55 AM 42.2°F5.7°C 38.3°F3.5°C 86% 2.0 mph NNE3.2 kmh NNE 4.0 mph6.4 kmh 30.41 in1029.8 mb 0.00 in0.0 mm 0.00 in0.0 mm 0.00 in0.0 mm
12:50 AM 42.4°F5.8°C 38.5°F3.6°C 86% 2.0 mph NNE3.2 kmh NNE 5.0 mph8.0 kmh 30.42 in1030.1 mb 0.00 in0.0 mm 0.00 in0.0 mm 0.00 in0.0 mm
12:45 AM 42.5°F5.8°C 38.6°F3.7°C 86% 2.0 mph NNE3.2 kmh NNE 5.0 mph8.0 kmh 30.42 in1030.1 mb 0.00 in0.0 mm 0.00 in0.0 mm 0.00 in0.0 mm
12:40 AM 42.5°F5.8°C 38.6°F3.7°C 86% 1.9 mph NNE3.1 kmh NNE 7.0 mph11.3 kmh 30.42 in1030.1 mb 0.00 in0.0 mm 0.00 in0.0 mm 0.00 in0.0 mm
12:35 AM 42.6°F5.9°C 38.4°F3.6°C 85% 1.4 mph NNE2.3 kmh NNE 7.0 mph11.3 kmh 30.42 in1030.1 mb 0.00 in0.0 mm 0.00 in0.0 mm 0.00 in0.0 mm
12:30 AM 42.7°F5.9°C 38.5°F3.6°C 85% 0.6 mph NNE1.0 kmh NNE 4.0 mph6.4 kmh 30.42 in1030.1 mb 0.00 in0.0 mm 0.00 in0.0 mm 0.00 in0.0 mm
12:25 AM 42.8°F6.0°C 38.6°F3.7°C 85% 0.6 mph NNE1.0 kmh NNE 4.0 mph6.4 kmh 30.42 in1030.1 mb 0.00 in0.0 mm 0.00 in0.0 mm 0.00 in0.0 mm
12:20 AM 42.9°F6.1°C 38.7°F3.7°C 85% 1.0 mph NNE1.6 kmh NNE 3.0 mph4.8 kmh 30.42 in1030.1 mb 0.00 in0.0 mm 0.00 in0.0 mm 0.00 in0.0 mm
12:15 AM 42.9°F6.1°C 38.7°F3.7°C 85% 1.0 mph NNE1.6 kmh NNE 3.0 mph4.8 kmh 30.42 in1030.1 mb 0.00 in0.0 mm 0.00 in0.0 mm 0.00 in0.0 mm
12:10 AM 43.1°F6.2°C 38.6°F3.7°C 84% 1.0 mph NNE1.6 kmh NNE 7.0 mph11.3 kmh 30.42 in1030.1 mb 0.00 in0.0 mm 0.00 in0.0 mm 0.00 in0.0 mm
12:05 AM 43.3°F6.3°C 38.8°F3.8°C 84% 1.0 mph NE1.6 kmh NE 7.0 mph11.3 kmh 30.42 in1030.1 mb 0.00 in0.0 mm 0.00 in0.0 mm 0.00 in0.0 mm
12:00 AM 43.3°F6.3°C 38.8°F3.8°C 84% 1.0 mph NE1.6 kmh NE 5.0 mph8.0 kmh 30.42 in1030.1 mb 0.00 in0.0 mm 0.00 in0.0 mm 0.00 in0.0 mm